Time;durP1;ratioP1;P1;durP2;ratioP2;P2;SDS_P1;SDS_P2;PMS_P1;PMS_P2;Temp;Humidity;BMP_temperature;BMP_pressure;BME280_temperature;BME280_humidity;BME280_pressure;Samples;Min_cycle;Max_cycle;Signal;HPM_P1;HPM_P2
2023/12/13 00:00:46;;;;;;;;;30.75;29.75;;;;;22.10;32.08;100920.73;246180;1176;58295;-63
2023/12/13 00:06:07;;;;;;;;;29.00;28.00;;;;;22.10;32.01;100920.05;246142;1180;73709;-63
2023/12/13 00:11:10;;;;;;;;;28.50;28.50;;;;;22.09;32.07;100917.36;246166;1175;58347;-63
2023/12/13 00:16:14;;;;;;;;;29.67;27.00;;;;;22.09;32.09;100923.11;246196;1180;58217;-63
2023/12/13 00:21:17;;;;;;;;;34.75;29.75;;;;;22.08;32.12;100925.20;246163;1188;73189;-62
2023/12/13 00:26:21;;;;;;;;;32.25;29.50;;;;;22.08;32.26;100939.67;246178;1179;73646;-63
2023/12/13 00:31:24;;;;;;;;;33.25;32.00;;;;;22.07;31.88;100937.95;246147;1177;58324;-63
2023/12/13 00:36:27;;;;;;;;;30.75;27.75;;;;;22.06;31.99;100931.90;246214;1176;58292;-63
2023/12/13 00:41:30;;;;;;;;;35.33;32.33;;;;;22.05;32.07;100927.43;246202;1179;58315;-63
2023/12/13 00:46:33;;;;;;;;;35.67;32.67;;;;;22.05;32.03;100926.09;246157;1180;58230;-63
2023/12/13 00:51:36;;;;;;;;;31.67;30.67;;;;;22.04;32.15;100937.19;246155;1180;58342;-62
2023/12/13 00:56:39;;;;;;;;;29.50;28.50;;;;;22.03;31.97;100922.79;246170;1175;58352;-62
2023/12/13 01:01:43;;;;;;;;;34.67;29.33;;;;;22.03;31.89;100918.30;246188;1176;58531;-62
2023/12/13 01:06:47;;;;;;;;;29.75;29.25;;;;;22.02;32.08;100919.89;246179;1177;72962;-63
2023/12/13 01:11:50;;;;;;;;;30.50;29.75;;;;;22.02;31.94;100913.77;246155;1177;73088;-63
2023/12/13 01:16:53;;;;;;;;;29.00;28.00;;;;;22.01;31.98;100911.51;246133;1175;58283;-63
2023/12/13 01:21:56;;;;;;;;;32.33;32.33;;;;;22.00;32.15;100906.91;246143;1177;74041;-63
2023/12/13 01:27:00;;;;;;;;;26.50;26.25;;;;;22.00;32.10;100902.59;246163;1177;58174;-63
2023/12/13 01:32:03;;;;;;;;;29.00;27.50;;;;;22.00;31.91;100895.34;246149;1180;58273;-62
2023/12/13 01:37:06;;;;;;;;;32.00;30.67;;;;;21.99;32.04;100893.84;246135;1180;73019;-63
2023/12/13 01:42:09;;;;;;;;;28.25;28.25;;;;;21.99;32.01;100879.47;246156;1177;58359;-62
2023/12/13 01:47:12;;;;;;;;;33.75;30.25;;;;;21.98;31.86;100879.05;246170;1180;58343;-63
2023/12/13 01:52:16;;;;;;;;;36.75;34.75;;;;;21.98;31.88;100884.92;246149;1180;73033;-63
2023/12/13 01:57:19;;;;;;;;;29.00;28.00;;;;;21.98;32.05;100870.05;246136;1180;74101;-62
2023/12/13 02:02:23;;;;;;;;;28.00;27.25;;;;;21.97;31.76;100862.11;246163;1176;73145;-63
2023/12/13 02:07:26;;;;;;;;;31.25;30.25;;;;;21.98;32.02;100869.66;246168;1179;73206;-63
2023/12/13 02:12:30;;;;;;;;;29.25;29.00;;;;;21.96;32.11;100875.11;246155;1180;73011;-63
2023/12/13 02:17:33;;;;;;;;;32.00;29.75;;;;;21.96;31.98;100871.21;246154;1177;74070;-62
2023/12/13 02:22:37;;;;;;;;;33.75;31.50;;;;;21.95;32.11;100861.45;246157;1180;73255;-63
2023/12/13 02:27:41;;;;;;;;;35.25;32.00;;;;;21.95;31.96;100872.94;246160;1180;73460;-63
2023/12/13 02:32:44;;;;;;;;;30.75;28.50;;;;;21.94;31.93;100887.23;246006;1188;73742;-64
2023/12/13 02:37:49;;;;;;;;;32.00;30.50;;;;;21.94;31.87;100881.86;246178;1179;73701;-63
2023/12/13 02:42:52;;;;;;;;;28.00;28.00;;;;;21.93;31.82;100901.05;246180;1180;73508;-63
2023/12/13 02:47:56;;;;;;;;;27.00;25.75;;;;;21.93;31.78;100896.71;246131;1179;58427;-63
2023/12/13 02:52:59;;;;;;;;;30.50;29.75;;;;;21.92;31.91;100894.48;246125;1180;73172;-63
2023/12/13 02:58:05;;;;;;;;;27.50;27.50;;;;;21.92;31.94;100899.38;246146;1177;58304;-63
2023/12/13 03:03:08;;;;;;;;;29.00;27.75;;;;;21.91;31.76;100895.69;246140;1180;73259;-63
2023/12/13 03:08:14;;;;;;;;;27.75;27.75;;;;;21.90;31.88;100902.06;246109;1188;72929;-63
2023/12/13 03:13:17;;;;;;;;;28.50;28.50;;;;;21.90;31.84;100901.77;246117;1188;73018;-63
2023/12/13 03:18:20;;;;;;;;;29.00;27.25;;;;;21.89;31.73;100910.36;246156;1176;58375;-63
2023/12/13 03:23:24;;;;;;;;;28.00;28.00;;;;;21.88;31.83;100907.55;246172;1180;73782;-62
2023/12/13 03:28:27;;;;;;;;;33.00;31.67;;;;;21.88;31.96;100906.34;246147;1180;73295;-62
2023/12/13 03:33:30;;;;;;;;;29.33;28.67;;;;;21.88;31.77;100907.98;246179;1177;58278;-63
2023/12/13 03:38:33;;;;;;;;;31.33;31.33;;;;;21.87;31.95;100890.30;246136;1175;58235;-62
2023/12/13 03:43:37;;;;;;;;;33.00;30.75;;;;;21.87;31.75;100888.33;246161;1180;73559;-63
2023/12/13 03:48:40;;;;;;;;;31.75;29.50;;;;;21.87;31.90;100890.42;246138;1180;73840;-63
2023/12/13 03:53:43;;;;;;;;;26.50;26.50;;;;;21.86;31.93;100892.84;246131;1180;73933;-63
2023/12/13 03:58:46;;;;;;;;;27.00;25.50;;;;;21.86;31.72;100896.70;246143;1175;58293;-63
2023/12/13 04:03:49;;;;;;;;;24.25;24.25;;;;;21.85;31.72;100891.67;246131;1176;72739;-62
2023/12/13 04:08:53;;;;;;;;;30.75;29.75;;;;;21.85;31.76;100894.11;246142;1180;72308;-63
2023/12/13 04:13:56;;;;;;;;;26.25;25.00;;;;;21.85;31.85;100904.83;246138;1177;58254;-63
2023/12/13 04:18:59;;;;;;;;;29.67;28.00;;;;;21.84;31.78;100898.48;246117;1180;58461;-63
2023/12/13 04:24:02;;;;;;;;;43.50;36.00;;;;;21.82;30.29;100898.84;246154;1180;58319;-63
2023/12/13 04:29:05;;;;;;;;;32.75;30.75;;;;;21.78;28.92;100893.98;246140;1178;73040;-63
2023/12/13 04:34:08;;;;;;;;;30.00;28.75;;;;;21.87;29.74;100893.48;246160;1177;58386;-63
2023/12/13 04:39:11;;;;;;;;;33.67;31.33;;;;;22.03;29.29;100877.66;246156;1176;58286;-63
2023/12/13 04:44:14;;;;;;;;;31.00;30.00;;;;;22.23;28.72;100882.66;246137;1177;58386;-63
2023/12/13 04:49:17;;;;;;;;;32.75;31.25;;;;;22.43;28.51;100868.13;246161;1176;58333;-63
2023/12/13 04:54:21;;;;;;;;;31.75;30.75;;;;;22.62;27.96;100878.07;246156;1179;58284;-63
2023/12/13 04:59:24;;;;;;;;;35.25;32.25;;;;;22.79;27.76;100886.12;246133;1184;58271;-63
2023/12/13 05:04:27;;;;;;;;;32.00;31.00;;;;;22.89;27.57;100889.02;246161;1179;72976;-63
2023/12/13 05:09:30;;;;;;;;;31.25;30.00;;;;;22.98;27.27;100878.83;246123;1180;58273;-63
2023/12/13 05:14:33;;;;;;;;;33.67;31.33;;;;;23.05;27.08;100883.77;246142;1179;58271;-63
2023/12/13 05:19:36;;;;;;;;;29.67;27.33;;;;;23.13;26.84;100876.88;246136;1180;58190;-63
2023/12/13 05:24:40;;;;;;;;;29.00;28.67;;;;;23.20;26.73;100872.42;246171;1179;58294;-63
2023/12/13 05:29:43;;;;;;;;;34.67;32.00;;;;;23.27;26.67;100886.21;246152;1179;58364;-63
2023/12/13 05:34:46;;;;;;;;;31.25;30.00;;;;;23.32;26.51;100883.40;246101;1175;73101;-63
2023/12/13 05:39:50;;;;;;;;;31.50;29.25;;;;;23.33;26.99;100882.05;246075;1176;73382;-63
2023/12/13 05:44:53;;;;;;;;;28.00;28.00;;;;;23.36;26.76;100875.33;246001;1180;58366;-63
2023/12/13 05:49:56;;;;;;;;;31.00;29.50;;;;;23.44;27.13;100884.83;245950;1180;74132;-65
2023/12/13 05:55:00;;;;;;;;;31.50;30.00;;;;;23.55;28.13;100905.38;245605;1177;74347;-64
2023/12/13 06:00:06;;;;;;;;;32.25;29.00;;;;;23.69;29.25;100899.13;245694;1180;58344;-62
2023/12/13 06:05:10;;;;;;;;;33.00;31.00;;;;;23.89;30.60;100879.41;245681;1180;74176;-61
2023/12/13 06:10:13;;;;;;;;;30.75;29.00;;;;;24.15;31.06;100877.58;246007;1176;72928;-61
2023/12/13 06:15:17;;;;;;;;;30.50;28.50;;;;;24.44;31.17;100882.45;245939;1180;72701;-62
2023/12/13 06:20:21;;;;;;;;;30.50;27.50;;;;;24.68;31.17;100884.84;246066;1176;73406;-61
2023/12/13 06:25:24;;;;;;;;;28.00;26.75;;;;;24.87;31.31;100893.13;246010;1176;72631;-62
2023/12/13 06:30:28;;;;;;;;;29.50;29.50;;;;;25.03;31.48;100870.08;246025;1180;74327;-60
2023/12/13 06:35:31;;;;;;;;;26.50;25.25;;;;;25.18;31.41;100865.46;245963;1176;72844;-61
2023/12/13 06:40:34;;;;;;;;;27.25;26.50;;;;;25.24;30.33;100863.27;245998;1176;72854;-62
2023/12/13 06:45:38;;;;;;;;;30.67;28.67;;;;;25.31;30.70;100858.29;245989;1180;73392;-61
2023/12/13 06:50:41;;;;;;;;;29.75;27.75;;;;;25.41;30.69;100865.62;246056;1176;73054;-62
2023/12/13 06:55:44;;;;;;;;;30.50;28.25;;;;;25.51;30.95;100873.46;246007;1177;58458;-63
2023/12/13 07:00:47;;;;;;;;;27.25;24.50;;;;;25.61;31.21;100874.91;245972;1180;58302;-60
2023/12/13 07:05:51;;;;;;;;;25.25;23.75;;;;;25.65;31.46;100868.73;245886;1176;71697;-60
2023/12/13 07:10:54;;;;;;;;;29.50;27.25;;;;;25.70;32.02;100857.60;246026;1176;74001;-60
2023/12/13 07:15:57;;;;;;;;;26.75;26.00;;;;;25.72;32.17;100853.05;245996;1180;74544;-61
2023/12/13 07:21:00;;;;;;;;;29.25;26.50;;;;;25.75;32.35;100847.30;245985;1177;72863;-63
2023/12/13 07:26:03;;;;;;;;;26.50;26.50;;;;;25.85;32.28;100843.98;245999;1179;58469;-62
2023/12/13 07:31:07;;;;;;;;;26.33;26.00;;;;;25.92;32.06;100842.67;245929;1180;73622;-61
2023/12/13 07:36:14;;;;;;;;;27.75;26.25;;;;;25.96;31.67;100846.00;245911;1177;73515;-61
2023/12/13 07:41:17;;;;;;;;;29.75;28.00;;;;;26.00;31.96;100848.23;245979;1180;73638;-61
2023/12/13 07:46:20;;;;;;;;;24.00;23.00;;;;;26.06;31.70;100839.52;246011;1180;74269;-63
2023/12/13 07:51:24;;;;;;;;;30.00;26.25;;;;;26.12;31.63;100837.85;245917;1179;73394;-64
2023/12/13 07:56:30;;;;;;;;;27.75;27.75;;;;;26.19;31.54;100849.14;245909;1176;74871;-61
2023/12/13 08:01:35;;;;;;;;;25.00;24.00;;;;;26.26;31.91;100848.08;245663;1176;72791;-62
2023/12/13 08:06:38;;;;;;;;;27.00;24.67;;;;;26.33;32.07;100842.77;245901;1177;73406;-62
2023/12/13 08:11:44;;;;;;;;;28.75;27.50;;;;;26.33;32.43;100834.11;245811;1177;73217;-62
2023/12/13 08:16:47;;;;;;;;;32.67;28.67;;;;;26.38;32.75;100828.41;245880;1179;74137;-62
2023/12/13 08:21:51;;;;;;;;;27.25;24.25;;;;;26.43;32.53;100832.34;245910;1178;73629;-63
2023/12/13 08:26:55;;;;;;;;;27.75;22.50;;;;;26.46;32.74;100837.10;245933;1179;73736;-61
2023/12/13 08:31:58;;;;;;;;;24.00;22.67;;;;;26.48;32.65;100833.86;245958;1180;74297;-61
2023/12/13 08:37:01;;;;;;;;;21.25;21.25;;;;;26.48;32.76;100820.80;245821;1175;58451;-61
2023/12/13 08:42:04;;;;;;;;;26.33;24.33;;;;;26.51;32.61;100802.38;245948;1177;58398;-60
2023/12/13 08:47:08;;;;;;;;;27.33;21.00;;;;;26.57;32.37;100791.83;245894;1177;58509;-61
2023/12/13 08:52:11;;;;;;;;;22.00;20.00;;;;;26.61;32.39;100776.70;245889;1175;73832;-61
2023/12/13 08:57:14;;;;;;;;;24.75;23.25;;;;;26.62;32.29;100785.95;245861;1175;73921;-60
2023/12/13 09:02:18;;;;;;;;;24.50;22.25;;;;;26.35;29.41;100787.60;245851;1179;73792;-60
2023/12/13 09:07:21;;;;;;;;;22.33;20.67;;;;;26.04;31.47;100795.21;245716;1176;73999;-62
2023/12/13 09:12:24;;;;;;;;;23.50;21.75;;;;;26.17;32.31;100792.79;245836;1176;73151;-61
2023/12/13 09:17:27;;;;;;;;;24.00;21.67;;;;;26.32;33.05;100777.11;245818;1179;58470;-63
2023/12/13 09:22:31;;;;;;;;;25.67;23.00;;;;;26.46;32.85;100776.03;245812;1176;58946;-62
2023/12/13 09:27:35;;;;;;;;;22.50;19.25;;;;;26.54;33.28;100765.27;245838;1177;73232;-64
2023/12/13 09:32:42;;;;;;;;;25.67;22.33;;;;;26.60;33.29;100753.81;245629;1179;73068;-66
2023/12/13 09:37:49;;;;;;;;;25.00;21.00;;;;;26.66;33.09;100749.41;245734;1182;73665;-64
2023/12/13 09:42:52;;;;;;;;;22.25;22.00;;;;;26.70;33.22;100739.40;245814;1176;58370;-64
2023/12/13 09:47:56;;;;;;;;;25.00;25.00;;;;;26.76;33.29;100731.48;245812;1183;73259;-61
2023/12/13 09:52:59;;;;;;;;;27.25;23.00;;;;;26.81;33.56;100721.14;245791;1180;74012;-63
2023/12/13 09:58:03;;;;;;;;;24.75;24.75;;;;;26.72;31.23;100725.11;245610;1176;72860;-61
2023/12/13 10:03:06;;;;;;;;;33.33;31.33;;;;;26.05;27.70;100717.59;245797;1177;58457;-61
2023/12/13 10:08:12;;;;;;;;;30.00;27.50;;;;;25.70;28.35;100699.81;245623;1180;58565;-59
2023/12/13 10:13:15;;;;;;;;;28.00;25.00;;;;;25.57;28.68;100682.34;245981;1176;73072;-61
2023/12/13 10:18:18;;;;;;;;;35.50;31.75;;;;;25.39;27.69;100675.98;245862;1184;72509;-61
2023/12/13 10:23:22;;;;;;;;;28.50;28.25;;;;;25.23;27.44;100667.52;245864;1177;73489;-62
2023/12/13 10:28:25;;;;;;;;;29.75;27.50;;;;;25.23;27.75;100648.04;245898;1179;58431;-61
2023/12/13 10:33:28;;;;;;;;;30.75;28.75;;;;;25.29;27.60;100644.05;245867;1180;72971;-61
2023/12/13 10:38:33;;;;;;;;;23.00;21.25;;;;;25.31;27.65;100623.73;245840;1177;73788;-61
2023/12/13 10:43:39;;;;;;;;;26.00;24.50;;;;;25.34;27.81;100611.10;245909;1178;72772;-61
2023/12/13 10:48:42;;;;;;;;;29.75;28.00;;;;;25.36;27.93;100593.83;245838;1176;73999;-61
2023/12/13 10:53:46;;;;;;;;;23.50;23.00;;;;;25.36;28.02;100583.28;245919;1176;73165;-61
2023/12/13 10:58:51;;;;;;;;;28.00;25.00;;;;;25.37;28.07;100573.77;245901;1176;73797;-61
2023/12/13 11:04:04;;;;;;;;;23.75;21.75;;;;;25.37;28.21;100569.71;245882;1177;73901;-61
2023/12/13 11:09:17;;;;;;;;;26.00;24.00;;;;;25.38;28.20;100542.95;245957;1179;73674;-60
2023/12/13 11:14:26;;;;;;;;;23.25;23.25;;;;;25.38;28.54;100526.81;246056;1180;73371;-61
2023/12/13 11:19:29;;;;;;;;;27.25;22.75;;;;;25.39;28.37;100506.29;246059;1179;73732;-60
2023/12/13 11:24:36;;;;;;;;;25.00;25.00;;;;;25.38;28.38;100490.94;246050;1180;74301;-61
2023/12/13 11:29:44;;;;;;;;;26.00;20.75;;;;;25.39;28.43;100464.46;246039;1180;74369;-61
2023/12/13 11:34:48;;;;;;;;;21.00;20.25;;;;;25.40;28.37;100467.27;246038;1179;73300;-61
2023/12/13 11:39:51;;;;;;;;;26.25;23.00;;;;;25.41;28.23;100495.83;245917;1179;74351;-61
2023/12/13 11:44:55;;;;;;;;;22.00;21.00;;;;;25.44;28.55;100497.08;245939;1176;58410;-61
2023/12/13 11:49:58;;;;;;;;;22.50;21.50;;;;;25.43;28.47;100463.02;245961;1179;72510;-60
2023/12/13 11:55:03;;;;;;;;;22.75;21.75;;;;;25.44;28.65;100437.45;245978;1176;73118;-61
2023/12/13 12:00:06;;;;;;;;;26.67;24.67;;;;;25.45;28.53;100428.92;245935;1179;74194;-61
2023/12/13 12:05:12;;;;;;;;;21.00;19.25;;;;;25.46;28.49;100423.08;246022;1177;73583;-61
2023/12/13 12:10:19;;;;;;;;;20.75;20.00;;;;;25.47;28.33;100423.92;245903;1175;73057;-60
2023/12/13 12:15:22;;;;;;;;;29.25;24.00;;;;;25.46;28.38;100432.22;246041;1179;74333;-61
2023/12/13 12:20:26;;;;;;;;;21.75;21.50;;;;;25.44;28.62;100442.86;246029;1176;58457;-61
2023/12/13 12:25:29;;;;;;;;;22.25;21.25;;;;;25.37;28.70;100436.33;246083;1180;72804;-61
2023/12/13 12:30:33;;;;;;;;;21.50;20.75;;;;;25.31;28.64;100418.32;246070;1177;73890;-61
2023/12/13 12:35:36;;;;;;;;;23.00;20.67;;;;;25.23;28.92;100403.46;246078;1179;73746;-61
2023/12/13 12:40:39;;;;;;;;;21.00;21.00;;;;;25.17;28.99;100392.11;246146;1177;58339;-62
2023/12/13 12:45:43;;;;;;;;;22.25;19.25;;;;;25.08;29.11;100420.24;246092;1179;72984;-61
2023/12/13 12:50:46;;;;;;;;;22.25;22.25;;;;;25.01;29.27;100429.10;246072;1180;72009;-61
2023/12/13 12:55:49;;;;;;;;;18.75;18.75;;;;;24.92;29.28;100413.80;246143;1177;73257;-62
2023/12/13 13:00:52;;;;;;;;;22.25;20.75;;;;;24.85;29.38;100384.42;246177;1180;58365;-61
2023/12/13 13:05:55;;;;;;;;;23.25;23.25;;;;;24.78;29.44;100361.44;246177;1183;58350;-62
2023/12/13 13:10:58;;;;;;;;;22.50;22.50;;;;;24.71;29.53;100342.86;246192;1179;73930;-61
2023/12/13 13:16:02;;;;;;;;;23.75;21.25;;;;;24.63;29.76;100325.52;246247;1179;73525;-62
2023/12/13 13:21:05;;;;;;;;;22.50;22.50;;;;;24.56;29.85;100329.48;246211;1176;73572;-62
2023/12/13 13:26:10;;;;;;;;;20.75;20.75;;;;;24.49;29.96;100343.56;246259;1179;72837;-62
2023/12/13 13:31:14;;;;;;;;;24.75;23.25;;;;;24.41;30.04;100358.67;246210;1180;73632;-62
2023/12/13 13:36:18;;;;;;;;;23.25;23.00;;;;;24.35;30.16;100366.89;246227;1175;73505;-62
2023/12/13 13:41:22;;;;;;;;;21.25;20.75;;;;;24.30;30.30;100391.30;246186;1180;73769;-61
2023/12/13 13:46:25;;;;;;;;;23.00;21.33;;;;;24.25;30.27;100400.23;246205;1179;73493;-62
2023/12/13 13:51:29;;;;;;;;;19.75;19.00;;;;;24.19;30.52;100398.35;246192;1179;58375;-61
2023/12/13 13:56:32;;;;;;;;;17.50;17.50;;;;;24.14;30.51;100390.41;246198;1179;72890;-61
2023/12/13 14:01:40;;;;;;;;;22.50;20.75;;;;;24.11;30.55;100383.29;246223;1179;73390;-61
2023/12/13 14:06:44;;;;;;;;;23.25;23.25;;;;;24.11;30.56;100376.08;246212;1176;73762;-62
2023/12/13 14:11:47;;;;;;;;;26.25;22.00;;;;;24.11;30.59;100355.17;246138;1177;73255;-62
2023/12/13 14:16:50;;;;;;;;;21.25;21.00;;;;;24.11;30.70;100339.30;246222;1175;58254;-62
2023/12/13 14:21:53;;;;;;;;;20.25;18.00;;;;;24.04;31.11;100332.52;246230;1179;58583;-62
2023/12/13 14:26:56;;;;;;;;;20.75;18.50;;;;;23.98;31.13;100311.80;246217;1180;58624;-61
2023/12/13 14:32:00;;;;;;;;;22.33;22.33;;;;;23.92;30.98;100277.75;246276;1177;58339;-61
2023/12/13 14:37:03;;;;;;;;;24.25;21.25;;;;;23.86;31.09;100270.98;246237;1179;73159;-62
2023/12/13 14:42:07;;;;;;;;;20.75;20.75;;;;;23.82;31.07;100273.33;246232;1179;74146;-62
2023/12/13 14:47:10;;;;;;;;;21.50;17.75;;;;;23.77;31.20;100268.42;246281;1180;74500;-62
2023/12/13 14:52:13;;;;;;;;;20.50;19.75;;;;;23.73;31.35;100273.67;246263;1179;58433;-61
2023/12/13 14:57:17;;;;;;;;;20.25;20.25;;;;;23.70;31.35;100275.73;246251;1178;58381;-62
2023/12/13 15:02:20;;;;;;;;;19.25;18.75;;;;;23.66;31.41;100267.70;246260;1180;75523;-62
2023/12/13 15:07:23;;;;;;;;;18.25;18.25;;;;;23.63;31.61;100262.57;246236;1188;71996;-62
2023/12/13 15:12:27;;;;;;;;;19.50;19.50;;;;;23.59;31.58;100250.95;246217;1179;73839;-62
2023/12/13 15:17:30;;;;;;;;;22.50;20.75;;;;;23.57;31.54;100256.55;246215;1179;73050;-62
2023/12/13 15:22:34;;;;;;;;;18.75;18.75;;;;;23.55;31.53;100246.18;246254;1179;74481;-61
2023/12/13 15:27:37;;;;;;;;;20.00;19.00;;;;;23.53;31.56;100236.55;246250;1177;72390;-62
2023/12/13 15:32:43;;;;;;;;;18.00;18.00;;;;;23.50;31.72;100233.85;246197;1179;73481;-62
2023/12/13 15:37:46;;;;;;;;;20.75;20.75;;;;;23.48;31.70;100221.77;246132;1183;74141;-62
2023/12/13 15:42:49;;;;;;;;;22.00;22.00;;;;;23.45;31.56;100223.63;246175;1176;58328;-62
2023/12/13 15:47:52;;;;;;;;;23.75;21.25;;;;;23.43;31.56;100230.08;246190;1179;58362;-62
2023/12/13 15:52:55;;;;;;;;;23.00;21.25;;;;;23.40;31.70;100224.02;246187;1177;58530;-62
2023/12/13 15:57:58;;;;;;;;;24.50;23.50;;;;;23.38;31.71;100210.75;246242;1179;58431;-62
2023/12/13 16:03:02;;;;;;;;;21.67;18.33;;;;;23.36;31.77;100193.20;246260;1177;58352;-62
2023/12/13 16:08:05;;;;;;;;;22.67;20.33;;;;;23.35;31.74;100182.42;246252;1177;73333;-62
2023/12/13 16:13:08;;;;;;;;;21.25;21.25;;;;;23.34;31.80;100180.92;246240;1179;72691;-62
2023/12/13 16:18:12;;;;;;;;;20.75;20.75;;;;;23.33;31.82;100182.80;246238;1175;58449;-62
2023/12/13 16:23:16;;;;;;;;;21.00;19.25;;;;;23.30;31.85;100182.14;246234;1188;73415;-62
2023/12/13 16:28:19;;;;;;;;;25.33;24.33;;;;;23.28;31.91;100177.52;246296;1175;58386;-62
2023/12/13 16:33:22;;;;;;;;;26.75;25.00;;;;;23.26;31.98;100172.07;246264;1177;58248;-62
2023/12/13 16:38:26;;;;;;;;;19.00;17.33;;;;;23.25;31.81;100182.12;246206;1177;58301;-61
2023/12/13 16:43:30;;;;;;;;;28.00;24.25;;;;;23.24;32.01;100172.98;246239;1180;74372;-62
2023/12/13 16:48:33;;;;;;;;;25.00;21.33;;;;;23.22;31.97;100159.04;246224;1180;72700;-61
2023/12/13 16:53:36;;;;;;;;;21.50;20.50;;;;;23.20;31.93;100152.23;246272;1177;58308;-62
2023/12/13 16:58:48;;;;;;;;;20.25;19.00;;;;;23.19;32.00;100141.61;246210;1179;72782;-61
2023/12/13 17:03:54;;;;;;;;;20.50;19.75;;;;;23.18;32.09;100130.23;246267;1188;73143;-62
2023/12/13 17:08:59;;;;;;;;;20.50;20.50;;;;;23.17;32.07;100136.34;246258;1176;72885;-62
2023/12/13 17:14:03;;;;;;;;;22.25;20.75;;;;;23.16;32.00;100135.45;246275;1179;73660;-62
2023/12/13 17:19:07;;;;;;;;;23.75;22.75;;;;;23.15;31.94;100123.96;246248;1179;73940;-62
2023/12/13 17:24:11;;;;;;;;;22.50;21.25;;;;;23.14;31.91;100120.49;246248;1179;73424;-62
2023/12/13 17:29:14;;;;;;;;;22.75;22.75;;;;;23.13;32.01;100118.79;246245;1180;74214;-62
2023/12/13 17:34:33;;;;;;;;;19.75;19.00;;;;;23.13;32.21;100113.17;246259;1174;72623;-62
2023/12/13 17:39:37;;;;;;;;;22.50;22.50;;;;;23.12;32.01;100113.02;246245;1179;74624;-62
2023/12/13 17:44:40;;;;;;;;;18.75;16.75;;;;;23.10;32.11;100108.31;246201;1180;58410;-62
2023/12/13 17:49:43;;;;;;;;;21.33;20.33;;;;;23.10;32.09;100099.95;246241;1176;58406;-61
2023/12/13 17:54:46;;;;;;;;;22.00;19.25;;;;;23.09;32.21;100091.75;246252;1179;73089;-62
2023/12/13 17:59:49;;;;;;;;;22.33;21.33;;;;;23.08;32.28;100094.08;246248;1179;73951;-61
2023/12/13 18:04:52;;;;;;;;;21.75;21.75;;;;;23.08;32.20;100096.69;246218;1180;72936;-62
2023/12/13 18:09:56;;;;;;;;;23.00;20.50;;;;;23.07;32.22;100100.28;246213;1176;72840;-62
2023/12/13 18:15:01;;;;;;;;;20.25;19.50;;;;;23.07;32.26;100099.62;246269;1177;72705;-62
2023/12/13 18:20:06;;;;;;;;;21.00;21.00;;;;;23.06;32.21;100090.86;246261;1177;73815;-61
2023/12/13 18:25:09;;;;;;;;;21.50;20.50;;;;;23.05;32.25;100068.55;246251;1179;73848;-62
2023/12/13 18:30:12;;;;;;;;;21.00;21.00;;;;;23.04;32.20;100059.63;246253;1188;73260;-62
2023/12/13 18:35:16;;;;;;;;;21.50;21.50;;;;;23.04;32.25;100050.33;246242;1176;73112;-62
2023/12/13 18:40:19;;;;;;;;;22.00;22.00;;;;;23.03;32.29;100050.10;246249;1179;72713;-61
2023/12/13 18:45:22;;;;;;;;;19.25;19.25;;;;;23.02;32.35;100059.09;246214;1177;73658;-62
2023/12/13 18:50:26;;;;;;;;;23.25;22.50;;;;;23.02;32.27;100048.19;246251;1179;72640;-62
2023/12/13 18:55:29;;;;;;;;;20.00;20.00;;;;;23.01;32.22;100046.15;246256;1177;58203;-62
2023/12/13 19:00:32;;;;;;;;;21.75;21.75;;;;;23.00;32.34;100032.97;246253;1175;58298;-61
2023/12/13 19:05:35;;;;;;;;;21.00;21.00;;;;;23.00;32.42;100027.08;246279;1179;58455;-62
2023/12/13 19:10:38;;;;;;;;;19.00;19.00;;;;;22.99;32.27;100025.52;246225;1177;72040;-62
2023/12/13 19:15:42;;;;;;;;;23.00;21.67;;;;;22.99;32.29;100013.75;246274;1178;73631;-61
2023/12/13 19:20:45;;;;;;;;;21.75;20.75;;;;;22.98;32.36;100016.79;246264;1179;73526;-61
2023/12/13 19:25:48;;;;;;;;;23.50;21.50;;;;;22.98;32.38;100013.07;246275;1177;58420;-62
2023/12/13 19:30:51;;;;;;;;;27.75;23.25;;;;;22.98;32.44;100018.73;246270;1175;58244;-62
2023/12/13 19:35:55;;;;;;;;;22.00;20.25;;;;;22.97;32.27;100017.37;246138;1177;72902;-62
2023/12/13 19:40:58;;;;;;;;;22.00;22.00;;;;;22.97;32.35;100015.46;246285;1179;73031;-62
2023/12/13 19:46:02;;;;;;;;;22.00;21.67;;;;;22.96;32.41;100016.98;246257;1175;58309;-61
2023/12/13 19:51:06;;;;;;;;;24.50;24.25;;;;;22.94;32.55;100023.66;242505;1179;72428;-62
2023/12/13 19:56:09;;;;;;;;;22.50;19.50;;;;;22.72;32.73;100021.75;240968;1176;73568;-62
2023/12/13 20:01:13;;;;;;;;;20.33;20.33;;;;;22.53;33.25;100011.71;240978;1176;72657;-61
2023/12/13 20:06:19;;;;;;;;;23.75;22.75;;;;;22.47;33.27;100000.02;246220;1179;72952;-62
2023/12/13 20:11:22;;;;;;;;;24.25;22.75;;;;;22.65;32.91;100006.11;246256;1180;73374;-62
2023/12/13 20:16:25;;;;;;;;;21.75;21.75;;;;;22.75;32.70;100002.30;246261;1176;58295;-62
2023/12/13 20:21:30;;;;;;;;;29.75;26.50;;;;;22.82;32.54;100012.96;246287;1176;74050;-62
2023/12/13 20:26:34;;;;;;;;;24.75;23.50;;;;;22.85;32.61;100004.65;246246;1179;72596;-62
2023/12/13 20:31:37;;;;;;;;;26.50;24.25;;;;;22.85;32.63;99998.54;246217;1177;74178;-62
2023/12/13 20:36:40;;;;;;;;;20.00;17.75;;;;;22.86;32.59;99991.66;246262;1176;73542;-62
2023/12/13 20:41:43;;;;;;;;;23.00;22.67;;;;;22.87;32.39;99986.16;246262;1180;58305;-62
2023/12/13 20:46:48;;;;;;;;;19.75;19.75;;;;;22.87;32.44;99976.34;246260;1188;72793;-62
2023/12/13 20:51:51;;;;;;;;;18.75;18.75;;;;;22.87;32.29;99973.40;246272;1177;73269;-62
2023/12/13 20:56:54;;;;;;;;;19.75;19.00;;;;;22.87;32.34;99971.23;246243;1176;58324;-62
2023/12/13 21:01:57;;;;;;;;;20.67;19.00;;;;;22.87;32.41;99978.64;246239;1177;58291;-62
2023/12/13 21:07:00;;;;;;;;;20.00;19.75;;;;;22.86;32.57;99969.19;246238;1180;72970;-61
2023/12/13 21:12:03;;;;;;;;;21.67;21.67;;;;;22.87;32.48;99971.82;246242;1180;58308;-62
2023/12/13 21:17:07;;;;;;;;;18.50;18.50;;;;;22.86;32.50;99964.77;246246;1180;74108;-62
2023/12/13 21:22:11;;;;;;;;;21.50;21.50;;;;;22.86;32.30;99965.95;246255;1179;72981;-62
2023/12/13 21:27:14;;;;;;;;;22.00;20.50;;;;;22.85;32.38;99967.69;246237;1179;58308;-62
2023/12/13 21:32:17;;;;;;;;;22.75;18.75;;;;;22.85;32.50;99960.86;246234;1176;58417;-62
2023/12/13 21:37:20;;;;;;;;;23.00;22.67;;;;;22.85;32.52;99955.78;246261;1179;58362;-62
2023/12/13 21:42:24;;;;;;;;;24.50;20.50;;;;;22.84;32.47;99948.11;246272;1176;72043;-62
2023/12/13 21:47:31;;;;;;;;;20.25;19.00;;;;;22.84;32.49;99942.50;246248;1180;74234;-62
2023/12/13 21:52:36;;;;;;;;;18.50;18.50;;;;;22.84;32.51;99938.85;246222;1179;72877;-62
2023/12/13 21:57:39;;;;;;;;;20.25;18.50;;;;;22.83;32.39;99933.45;246235;1176;73457;-62
2023/12/13 22:02:42;;;;;;;;;19.50;19.50;;;;;22.83;32.40;99932.96;246267;1177;58266;-61
2023/12/13 22:07:45;;;;;;;;;22.25;22.25;;;;;22.82;32.51;99925.27;246248;1180;58310;-61
2023/12/13 22:12:48;;;;;;;;;24.00;21.00;;;;;22.82;32.59;99917.30;246251;1180;58414;-61
2023/12/13 22:17:54;;;;;;;;;23.00;21.00;;;;;22.81;32.64;99913.24;246248;1177;58266;-61
2023/12/13 22:22:57;;;;;;;;;21.75;21.75;;;;;22.82;32.60;99912.16;246229;1177;72662;-61
2023/12/13 22:28:01;;;;;;;;;18.75;17.75;;;;;22.81;32.41;99904.55;246246;1177;73153;-61
2023/12/13 22:33:04;;;;;;;;;23.33;22.00;;;;;22.81;32.45;99901.00;246237;1180;58236;-61
2023/12/13 22:38:08;;;;;;;;;21.00;19.75;;;;;22.79;32.41;99897.71;246238;1180;72518;-61
2023/12/13 22:43:11;;;;;;;;;18.00;16.67;;;;;22.79;32.48;99894.92;246275;1180;73299;-61